Leland, Illinois
Current Conditions -  °F | °C
As of 9:52 AM on Saturday 20 Dec 2014 (Local Time) from KARR Reporting Station
Haze Haze  
Wind Chill: 29°   Ceiling: 6000
Heat Index: 29°   Visibility: 4mi
Dew Point: 23°   Wind: 3mph
Humidity: 78%   Direction: 150°SSE
Pressure: 30.29"   Gusts: NA
Location:  41.61°N, 88.8°W
Report Text: KARR 201552Z 15003KT 4SM HZ OVC060 M02/M05 A3029 RMK AO2 SLP267 T10171050
Loading
Personal Weather Stations






























Interactive Weather Map New forecast layout! Learn more

10-Day Weather Forecast

Advertisements
Track Severe Weather on mobile